createdAt,value
2022-10-22T00:02:15.476Z,100249.07
2022-10-22T00:07:20.421Z,100246.52
2022-10-22T00:09:49.406Z,100240.27
2022-10-22T00:12:19.056Z,100238.27
2022-10-22T00:14:48.779Z,100237.23
2022-10-22T00:17:18.044Z,100235.63
2022-10-22T00:19:46.510Z,100232.23
2022-10-22T00:22:15.310Z,100234.94
2022-10-22T00:24:44.680Z,100239.30
2022-10-22T00:27:13.762Z,100239.92
2022-10-22T00:29:46.043Z,100236.71
2022-10-22T00:32:15.110Z,100229.13
2022-10-22T00:34:44.191Z,100223.60
2022-10-22T00:37:12.547Z,100213.95
2022-10-22T00:39:43.178Z,100208.67
2022-10-22T00:42:16.575Z,100201.98
2022-10-22T00:45:17.503Z,100206.30
2022-10-22T00:47:51.640Z,100202.66
2022-10-22T00:50:25.008Z,100199.91
2022-10-22T00:52:54.204Z,100201.04
2022-10-22T00:55:24.951Z,100203.40
2022-10-22T00:57:55.598Z,100200.95
2022-10-22T01:00:24.714Z,100200.16
2022-10-22T01:02:55.213Z,100195.40
2022-10-22T01:05:26.040Z,100191.75
2022-10-22T01:07:55.051Z,100190.92
2022-10-22T01:10:43.440Z,100185.52
2022-10-22T01:13:23.238Z,100187.13
2022-10-22T01:16:05.313Z,100185.96
2022-10-22T01:18:43.250Z,100181.69
2022-10-22T01:21:23.009Z,100176.88
2022-10-22T01:24:27.948Z,100173.11
2022-10-22T01:27:05.855Z,100171.92
2022-10-22T01:29:42.102Z,100167.90
2022-10-22T01:32:15.793Z,100167.52
2022-10-22T01:34:49.931Z,100164.38
2022-10-22T01:37:22.590Z,100160.58
2022-10-22T01:39:52.814Z,100158.50
2022-10-22T01:42:21.225Z,100158.26
2022-10-22T01:44:50.136Z,100163.34
2022-10-22T01:47:32.501Z,100164.80
2022-10-22T01:50:17.166Z,100172.86
2022-10-22T01:53:01.527Z,100172.36
2022-10-22T01:55:36.139Z,100168.03
2022-10-22T01:58:22.453Z,100162.21
2022-10-22T02:00:58.427Z,100157.33
2022-10-22T02:03:31.474Z,100156.30
2022-10-22T02:06:05.692Z,100147.19
2022-10-22T02:08:36.249Z,100142.36
2022-10-22T02:11:05.939Z,100145.64
2022-10-22T02:13:38.734Z,100143.74
2022-10-22T02:16:12.362Z,100145.09
2022-10-22T02:18:44.869Z,100144.42
2022-10-22T02:21:14.396Z,100142.96
2022-10-22T02:23:46.028Z,100140.31
2022-10-22T02:26:22.801Z,100138.95
2022-10-22T02:28:59.251Z,100140.26
2022-10-22T02:31:32.315Z,100142.19
2022-10-22T02:34:08.279Z,100141.73
2022-10-22T02:36:38.025Z,100142.06
2022-10-22T02:39:08.041Z,100149.50
2022-10-22T02:41:38.403Z,100155.54
2022-10-22T02:44:10.173Z,100155.67
2022-10-22T02:46:42.869Z,100150.52
2022-10-22T02:49:11.488Z,100149.13
2022-10-22T02:51:40.687Z,100146.20
2022-10-22T02:54:09.137Z,100148.94
2022-10-22T02:56:37.581Z,100157.48
2022-10-22T02:59:06.191Z,100154.19
2022-10-22T03:01:34.575Z,100151.70
2022-10-22T03:04:03.263Z,100150.86
2022-10-22T03:06:31.509Z,100146.63
2022-10-22T03:09:00.057Z,100144.95
2022-10-22T03:11:28.412Z,100145.30
2022-10-22T03:13:56.860Z,100142.33
2022-10-22T03:16:25.167Z,100136.58
2022-10-22T03:18:53.413Z,100141.90
2022-10-22T03:21:29.822Z,100137.11
2022-10-22T03:23:59.697Z,100136.02
2022-10-22T03:26:28.825Z,100136.58
2022-10-22T03:28:57.629Z,100131.31
2022-10-22T03:31:25.903Z,100135.75
2022-10-22T03:33:54.582Z,100141.67
2022-10-22T03:36:22.923Z,100143.35
2022-10-22T03:38:51.327Z,100148.41
2022-10-22T03:41:20.229Z,100156.02
2022-10-22T03:43:52.331Z,100155.73
2022-10-22T03:46:41.342Z,100154.13
2022-10-22T03:49:11.279Z,100157.54
2022-10-22T03:51:41.969Z,100155.33
2022-10-22T03:54:10.354Z,100147.36
2022-10-22T03:56:38.741Z,100143.20
2022-10-22T03:59:09.681Z,100140.29
2022-10-22T04:01:43.383Z,100137.39
2022-10-22T04:04:12.469Z,100141.75
2022-10-22T04:06:41.870Z,100149.41
2022-10-22T04:09:10.222Z,100147.30
2022-10-22T04:11:42.270Z,100145.04
2022-10-22T04:14:11.407Z,100142.84
2022-10-22T04:16:44.428Z,100141.44
2022-10-22T04:19:14.246Z,100142.10
2022-10-22T04:21:43.016Z,100136.58
2022-10-22T04:24:11.584Z,100122.23
2022-10-22T04:26:42.647Z,100114.09
2022-10-22T04:29:15.230Z,100107.98
2022-10-22T04:31:47.737Z,100104.09
2022-10-22T04:34:16.193Z,100103.09
2022-10-22T04:36:45.766Z,100100.31
2022-10-22T04:39:15.423Z,100090.75
2022-10-22T04:41:43.851Z,100087.73
2022-10-22T04:44:15.920Z,100084.64
2022-10-22T04:46:47.491Z,100092.52
2022-10-22T04:49:19.391Z,100095.88
2022-10-22T04:51:48.488Z,100102.92
2022-10-22T04:54:17.207Z,100101.11
2022-10-22T04:56:45.838Z,100102.16
2022-10-22T04:59:14.291Z,100098.06
2022-10-22T05:01:47.171Z,100099.66
2022-10-22T05:04:19.245Z,100096.61
2022-10-22T05:06:47.734Z,100093.38
2022-10-22T05:09:18.550Z,100096.24
2022-10-22T05:11:49.756Z,100101.86
2022-10-22T05:14:20.201Z,100110.88
2022-10-22T05:16:49.946Z,100113.81
2022-10-22T05:19:23.461Z,100114.55
2022-10-22T05:21:52.881Z,100117.11
2022-10-22T05:24:21.951Z,100119.52
2022-10-22T05:26:52.004Z,100118.02
2022-10-22T05:29:22.380Z,100120.20
2022-10-22T05:31:50.982Z,100116.70
2022-10-22T05:34:19.460Z,100115.58
2022-10-22T05:36:48.115Z,100113.65
2022-10-22T05:39:16.599Z,100111.76
2022-10-22T05:41:45.048Z,100110.58
2022-10-22T05:44:14.885Z,100104.83
2022-10-22T05:46:45.023Z,100104.29
2022-10-22T05:49:15.727Z,100106.38
2022-10-22T05:51:45.132Z,100111.54
2022-10-22T05:54:19.693Z,100112.13
2022-10-22T05:56:48.549Z,100101.41
2022-10-22T05:59:16.979Z,100094.63
2022-10-22T06:01:46.093Z,100098.36
2022-10-22T06:04:18.122Z,100105.92
2022-10-22T06:06:49.032Z,100118.41
2022-10-22T06:09:20.271Z,100121.19
2022-10-22T06:11:50.497Z,100110.71
2022-10-22T06:14:20.989Z,100111.28
2022-10-22T06:16:50.003Z,100115.41
2022-10-22T06:19:21.741Z,100122.73
2022-10-22T06:21:50.293Z,100127.73
2022-10-22T06:24:18.751Z,100127.61
2022-10-22T06:26:50.804Z,100125.27
2022-10-22T06:29:20.184Z,100129.98
2022-10-22T06:31:49.226Z,100125.10
2022-10-22T06:34:18.523Z,100122.81
2022-10-22T06:36:47.627Z,100141.86
2022-10-22T06:39:18.020Z,100145.56
2022-10-22T06:41:46.938Z,100133.91
2022-10-22T06:44:20.278Z,100128.77
2022-10-22T06:46:51.594Z,100125.26
2022-10-22T06:49:22.128Z,100125.73
2022-10-22T06:51:52.051Z,100127.95
2022-10-22T06:54:20.812Z,100135.59
2022-10-22T06:56:49.316Z,100145.43
2022-10-22T06:59:17.646Z,100140.56
2022-10-22T07:01:47.705Z,100139.27
2022-10-22T07:04:16.307Z,100144.08
2022-10-22T07:06:44.778Z,100164.04
2022-10-22T07:09:13.408Z,100175.48
2022-10-22T07:11:45.383Z,100181.91
2022-10-22T07:14:14.683Z,100189.08
2022-10-22T07:16:46.411Z,100187.88
2022-10-22T07:19:16.064Z,100191.40
2022-10-22T07:21:44.665Z,100181.55
2022-10-22T07:24:13.108Z,100179.72
2022-10-22T07:26:43.882Z,100177.77
2022-10-22T07:29:15.096Z,100172.31
2022-10-22T07:31:45.890Z,100172.35
2022-10-22T07:34:15.184Z,100164.69
2022-10-22T07:36:43.766Z,100160.48
2022-10-22T07:39:12.293Z,100158.86
2022-10-22T07:41:42.797Z,100158.55
2022-10-22T07:44:11.433Z,100164.25
2022-10-22T07:46:45.506Z,100160.98
2022-10-22T07:49:16.841Z,100160.64
2022-10-22T07:51:46.330Z,100170.11
2022-10-22T07:54:15.434Z,100175.06
2022-10-22T07:56:44.199Z,100173.02
2022-10-22T07:59:13.008Z,100175.27
2022-10-22T08:01:44.408Z,100176.83
2022-10-22T08:04:13.062Z,100178.31
2022-10-22T08:06:47.165Z,100175.73
2022-10-22T08:09:15.976Z,100180.92
2022-10-22T08:11:45.520Z,100176.89
2022-10-22T08:14:14.113Z,100176.95
2022-10-22T08:16:45.909Z,100185.27
2022-10-22T08:19:18.281Z,100189.54
2022-10-22T08:21:47.871Z,100193.36
2022-10-22T08:24:16.610Z,100194.96
2022-10-22T08:26:47.789Z,100195.69
2022-10-22T08:29:16.267Z,100194.91
2022-10-22T08:31:44.889Z,100188.20
2022-10-22T08:34:13.210Z,100187.04
2022-10-22T08:36:42.714Z,100181.90
2022-10-22T08:39:11.356Z,100179.93
2022-10-22T08:41:59.603Z,100184.38
2022-10-22T08:44:53.724Z,100179.59
2022-10-22T08:47:45.866Z,100181.88
2022-10-22T08:50:27.496Z,100182.92
2022-10-22T08:53:00.188Z,100182.59
2022-10-22T08:55:33.891Z,100183.66
2022-10-22T08:58:18.213Z,100182.29
2022-10-22T09:00:57.102Z,100188.89
2022-10-22T09:03:36.578Z,100197.69
2022-10-22T09:06:12.059Z,100198.42
2022-10-22T09:08:45.938Z,100202.48
2022-10-22T09:11:25.768Z,100209.16
2022-10-22T09:13:56.941Z,100208.81
2022-10-22T09:16:45.474Z,100205.77
2022-10-22T09:19:24.036Z,100208.59
2022-10-22T09:22:02.048Z,100211.16
2022-10-22T09:24:37.322Z,100206.73
2022-10-22T09:27:14.077Z,100203.59
2022-10-22T09:29:53.787Z,100200.38
2022-10-22T09:32:22.797Z,100197.31
2022-10-22T09:34:55.295Z,100194.84
2022-10-22T09:37:27.881Z,100191.33
2022-10-22T09:39:58.794Z,100193.70
2022-10-22T09:42:27.274Z,100188.93
2022-10-22T09:44:58.497Z,100183.30
2022-10-22T09:47:43.622Z,100181.81
2022-10-22T09:50:27.816Z,100184.66
2022-10-22T09:53:00.746Z,100182.77
2022-10-22T09:55:29.898Z,100186.03
2022-10-22T09:58:00.319Z,100186.90
2022-10-22T10:00:31.162Z,100188.84
2022-10-22T10:03:00.971Z,100187.83
2022-10-22T10:05:31.806Z,100189.31
2022-10-22T10:08:11.896Z,100199.27
2022-10-22T10:10:46.799Z,100199.11
2022-10-22T10:13:37.846Z,100195.20
2022-10-22T10:16:21.552Z,100190.77
2022-10-22T10:19:13.270Z,100199.53
2022-10-22T10:21:54.107Z,100204.35
2022-10-22T10:24:28.913Z,100208.10
2022-10-22T10:27:11.379Z,100210.96
2022-10-22T10:29:52.622Z,100217.11
2022-10-22T10:32:33.364Z,100216.59
2022-10-22T10:35:16.255Z,100208.36
2022-10-22T10:40:31.711Z,100202.96
2022-10-22T10:43:09.557Z,100209.70
2022-10-22T10:45:51.250Z,100217.59
2022-10-22T10:48:45.267Z,100224.30
2022-10-22T10:51:26.812Z,100222.25
2022-10-22T10:54:15.614Z,100219.45
2022-10-22T10:56:52.105Z,100220.52
2022-10-22T10:59:40.526Z,100222.23
2022-10-22T11:02:36.267Z,100220.63
2022-10-22T11:05:28.764Z,100218.49
2022-10-22T11:08:00.867Z,100214.09
2022-10-22T11:10:33.953Z,100211.61
2022-10-22T11:13:13.937Z,100204.36
2022-10-22T11:15:50.965Z,100195.66
2022-10-22T11:18:24.926Z,100183.80
2022-10-22T11:21:03.421Z,100179.74
2022-10-22T11:23:37.932Z,100184.02
2022-10-22T11:26:13.669Z,100181.98
2022-10-22T11:28:50.394Z,100178.98
2022-10-22T11:31:20.080Z,100179.79
2022-10-22T11:34:04.934Z,100181.69
2022-10-22T11:36:40.341Z,100181.98
2022-10-22T11:39:31.191Z,100181.27
2022-10-22T11:42:03.560Z,100182.58
2022-10-22T11:44:48.525Z,100184.11
2022-10-22T11:47:25.945Z,100180.94
2022-10-22T11:50:02.803Z,100180.35
2022-10-22T11:52:53.892Z,100176.95
2022-10-22T11:55:48.312Z,100172.98
2022-10-22T11:58:44.446Z,100168.65
2022-10-22T12:01:28.837Z,100168.67
2022-10-22T12:04:18.861Z,100168.83
2022-10-22T12:07:05.295Z,100163.54
2022-10-22T12:09:40.273Z,100157.36
2022-10-22T12:12:15.507Z,100149.69
2022-10-22T12:15:00.451Z,100150.29
2022-10-22T12:17:31.235Z,100146.65
2022-10-22T12:20:07.378Z,100149.75
2022-10-22T12:22:37.208Z,100150.17
2022-10-22T12:25:17.849Z,100152.62
2022-10-22T12:27:54.335Z,100147.15
2022-10-22T12:30:25.890Z,100149.51
2022-10-22T12:32:56.216Z,100153.14
2022-10-22T12:35:26.771Z,100145.67
2022-10-22T12:37:58.568Z,100142.81
2022-10-22T12:40:30.606Z,100142.66
2022-10-22T12:43:01.427Z,100142.66
2022-10-22T12:45:32.842Z,100148.21
2022-10-22T12:48:05.217Z,100145.09
2022-10-22T12:50:37.828Z,100143.53
2022-10-22T12:53:12.683Z,100141.80
2022-10-22T12:55:42.544Z,100139.59
2022-10-22T12:58:19.154Z,100141.98
2022-10-22T13:00:48.873Z,100142.00
2022-10-22T13:03:33.177Z,100142.27
2022-10-22T13:06:24.447Z,100159.01
2022-10-22T13:09:13.112Z,100162.82
2022-10-22T13:11:44.683Z,100165.17
2022-10-22T13:14:28.595Z,100165.77
2022-10-22T13:17:10.174Z,100164.73
2022-10-22T13:19:44.138Z,100173.05
2022-10-22T13:22:28.013Z,100175.04
2022-10-22T13:24:59.410Z,100173.80
2022-10-22T13:27:30.717Z,100170.08
2022-10-22T13:30:04.047Z,100166.39
2022-10-22T13:32:34.409Z,100163.51
2022-10-22T13:35:04.401Z,100168.88
2022-10-22T13:37:38.150Z,100165.10
2022-10-22T13:40:12.862Z,100166.07
2022-10-22T13:42:44.550Z,100164.21
2022-10-22T13:45:15.316Z,100167.79
2022-10-22T13:47:52.127Z,100166.30
2022-10-22T13:50:23.582Z,100158.54
2022-10-22T13:52:56.408Z,100150.67
2022-10-22T13:55:28.528Z,100151.12
2022-10-22T13:58:00.315Z,100152.34
2022-10-22T14:00:28.713Z,100153.56
2022-10-22T14:02:59.683Z,100147.32
2022-10-22T14:05:30.025Z,100145.67
2022-10-22T14:08:00.477Z,100141.23
2022-10-22T14:10:29.247Z,100141.66
2022-10-22T14:12:57.979Z,100139.23
2022-10-22T14:15:29.153Z,100140.80
2022-10-22T14:18:00.348Z,100139.88
2022-10-22T14:26:49.365Z,100132.41
2022-10-22T14:29:35.913Z,100126.86
2022-10-22T14:32:50.919Z,100130.39
2022-10-22T14:35:44.614Z,100128.48
2022-10-22T14:38:24.611Z,100132.33
2022-10-22T14:41:25.684Z,100128.02
2022-10-22T14:44:31.089Z,100132.34
2022-10-22T14:47:23.528Z,100132.73
2022-10-22T14:50:17.478Z,100135.98
